Impacts METAR Board
IDs:

KILE - Killeen/Skylark Fld, TX, US

Updated at: 0300 UTC 06 Dec 2019
Potential Impact None Slight Moderate High
Time 05/15Z 05/16Z 05/17Z 05/18Z 05/19Z 05/20Z 05/21Z 05/22Z 05/23Z 06/00Z 06/01Z 06/02Z 06/03Z
Temp58 65 67 72 74 76 76 74 72 69 67 66 67
Dewpt46 57 58 58 57 56 56 56 56 57 57 59 60
Altim30.03 30.04 30.03 30.00 29.96 29.91 29.90 29.90 29.90 29.91 29.93 29.94 29.95
VIS10 10 10 10 10 10 10 10 10 10 10 10 10
CIG-- -- 14 -- -- -- -- -- -- -- -- -- --
CoverCLRCLRBKNCLRCLRCLRCLRCLRCLRCLRCLRCLRCLR
FltCatVFRVFRMVFRVFRVFRVFRVFRVFRVFRVFRVFRVFRVFR
WX--------------------------
WDir160200190190190180170160170160180190200
WSpd8 18 12 13 14 15 14 13 14 11 10 13 14
WGst-- 23 -- 20 18 -- -- -- 18 -- -- 18 --
Raw hourly METARs
KILE 051456Z AUTO 16008KT 10SM CLR 14/08 A3003 RMK AO2 SLP161 T01440078 52008
KILE 051556Z AUTO 20018G23KT 10SM CLR 18/14 A3004 RMK AO2 SLP163 T01830139
KILE 051656Z AUTO 19012KT 10SM BKN014 19/14 A3003 RMK AO2 SLP162 T01940144
KILE 051756Z AUTO 19013G20KT 10SM CLR 22/14 A3000 RMK AO2 SLP150 T02220144 10222 20089 58010
KILE 051856Z AUTO 19014G18KT 10SM CLR 23/14 A2996 RMK AO2 SLP137 T02330139
KILE 051956Z AUTO 18015KT 10SM CLR 24/13 A2991 RMK AO2 SLP122 T02440133
KILE 052056Z AUTO 17014KT 10SM CLR 24/13 A2990 RMK AO2 SLP115 T02440133 56034
KILE 052156Z AUTO 16013KT 10SM CLR 23/13 A2990 RMK AO2 SLP116 T02330133
KILE 052256Z AUTO 17014G18KT 10SM CLR 22/13 A2990 RMK AO2 SLP119 T02220133
KILE 052356Z AUTO 16011KT 10SM CLR 21/14 A2991 RMK AO2 SLP123 T02060139 10244 20206 53005
KILE 060056Z AUTO 18010KT 10SM CLR 19/14 A2993 RMK AO2 SLP126 T01940139
KILE 060156Z AUTO 19013G18KT 10SM CLR 19/15 A2994 RMK AO2 SLP131 T01890150
KILE 060256Z AUTO 20014KT 10SM CLR 19/16 A2995 RMK AO2 SLP135 T01940156 51012